createdAt,value
2016-11-01T00:00:46.516Z,1024.97
2016-11-01T00:01:46.545Z,1024.96
2016-11-01T00:02:46.552Z,1024.88
2016-11-01T00:03:46.570Z,1024.88
2016-11-01T00:04:46.586Z,1024.85
2016-11-01T00:05:46.607Z,1024.85
2016-11-01T00:06:46.624Z,1024.82
2016-11-01T00:07:46.656Z,1024.85
2016-11-01T00:08:46.660Z,1024.85
2016-11-01T00:09:46.677Z,1024.83
2016-11-01T00:10:46.695Z,1024.86
2016-11-01T00:11:46.719Z,1024.81
2016-11-01T00:12:46.728Z,1024.8
2016-11-01T00:13:46.759Z,1024.83
2016-11-01T00:14:46.768Z,1024.82
2016-11-01T00:15:46.786Z,1024.82
2016-11-01T00:16:46.810Z,1024.83
2016-11-01T00:17:46.821Z,1024.85
2016-11-01T00:18:46.837Z,1024.86
2016-11-01T00:19:46.869Z,1024.83
2016-11-01T00:20:46.877Z,1024.8
2016-11-01T00:21:46.900Z,1024.78
2016-11-01T00:22:46.922Z,1024.75
2016-11-01T00:23:46.932Z,1024.73
2016-11-01T00:24:46.949Z,1024.7
2016-11-01T00:25:46.970Z,1024.69
2016-11-01T00:26:46.985Z,1024.68
2016-11-01T00:27:47.009Z,1024.59
2016-11-01T00:28:47.023Z,1024.63
2016-11-01T00:29:47.048Z,1024.58
2016-11-01T00:30:47.067Z,1024.61
2016-11-01T00:31:47.079Z,1024.55
2016-11-01T00:32:47.100Z,1024.55
2016-11-01T00:33:47.118Z,1024.56
2016-11-01T00:34:47.141Z,1024.56
2016-11-01T00:35:47.165Z,1024.59
2016-11-01T00:36:47.169Z,1024.58
2016-11-01T00:37:47.189Z,1024.59
2016-11-01T00:38:47.205Z,1024.54
2016-11-01T00:39:47.236Z,1024.5
2016-11-01T00:40:47.252Z,1024.54
2016-11-01T00:41:47.258Z,1024.52
2016-11-01T00:42:47.279Z,1024.52
2016-11-01T00:43:47.298Z,1024.49
2016-11-01T00:44:47.313Z,1024.43
2016-11-01T00:45:47.339Z,1024.48
2016-11-01T00:46:47.364Z,1024.43
2016-11-01T00:47:47.388Z,1024.41
2016-11-01T00:48:47.388Z,1024.38
2016-11-01T00:49:47.412Z,1024.39
2016-11-01T00:50:47.425Z,1024.39
2016-11-01T00:51:47.444Z,1024.42
2016-11-01T00:52:47.457Z,1024.41
2016-11-01T00:53:47.489Z,1024.41
2016-11-01T00:54:47.497Z,1024.41
2016-11-01T00:55:47.517Z,1024.39
2016-11-01T00:56:47.539Z,1024.39
2016-11-01T00:57:47.558Z,1024.39
2016-11-01T00:58:47.580Z,1024.35
2016-11-01T00:59:47.592Z,1024.35
2016-11-01T01:00:47.617Z,1024.35
2016-11-01T01:01:47.625Z,1024.32
2016-11-01T01:02:47.651Z,1024.36
2016-11-01T01:03:47.664Z,1024.34
2016-11-01T01:04:47.685Z,1024.33
2016-11-01T01:05:47.707Z,1024.34
2016-11-01T01:06:47.720Z,1024.3
2016-11-01T01:07:47.738Z,1024.27
2016-11-01T01:08:47.760Z,1024.26
2016-11-01T01:09:47.822Z,1024.24
2016-11-01T01:10:47.797Z,1024.18
2016-11-01T01:11:47.813Z,1024.17
2016-11-01T01:12:47.832Z,1024.15
2016-11-01T01:13:47.852Z,1024.16
2016-11-01T01:14:47.866Z,1024.08
2016-11-01T01:15:47.893Z,1024.03
2016-11-01T01:16:47.911Z,1024.03
2016-11-01T01:17:47.922Z,1024
2016-11-01T01:18:47.941Z,1024.01
2016-11-01T01:19:47.960Z,1023.97
2016-11-01T01:20:47.979Z,1023.94
2016-11-01T01:21:47.994Z,1023.95
2016-11-01T01:22:48.147Z,1023.89
2016-11-01T01:23:48.031Z,1023.91
2016-11-01T01:24:48.258Z,1023.87
2016-11-01T01:25:48.072Z,1023.87
2016-11-01T01:26:48.086Z,1023.82
2016-11-01T01:27:48.107Z,1023.81
2016-11-01T01:28:48.119Z,1023.8
2016-11-01T01:29:48.143Z,1023.82
2016-11-01T01:30:48.157Z,1023.81
2016-11-01T01:31:48.181Z,1023.77
2016-11-01T01:32:48.199Z,1023.73
2016-11-01T01:33:48.225Z,1023.72
2016-11-01T01:34:48.231Z,1023.71
2016-11-01T01:35:48.264Z,1023.66
2016-11-01T01:36:48.271Z,1023.64
2016-11-01T01:37:48.289Z,1023.67
2016-11-01T01:38:48.304Z,1023.68
2016-11-01T01:39:48.338Z,1023.69
2016-11-01T01:40:48.343Z,1023.69
2016-11-01T01:41:48.359Z,1023.68
2016-11-01T01:42:48.378Z,1023.68
2016-11-01T01:43:48.400Z,1023.71
2016-11-01T01:44:48.419Z,1023.72
2016-11-01T01:45:48.434Z,1023.72
2016-11-01T01:46:48.454Z,1023.7
2016-11-01T01:47:48.468Z,1023.69
2016-11-01T01:48:48.503Z,1023.65
2016-11-01T01:49:48.510Z,1023.6
2016-11-01T01:50:48.531Z,1023.59
2016-11-01T01:51:48.544Z,1023.53
2016-11-01T01:52:48.582Z,1023.58
2016-11-01T01:53:48.582Z,1023.53
2016-11-01T01:54:48.599Z,1023.54
2016-11-01T01:55:48.617Z,1023.52
2016-11-01T01:56:48.635Z,1023.5
2016-11-01T01:57:48.650Z,1023.48
2016-11-01T01:58:48.664Z,1023.45
2016-11-01T01:59:48.686Z,1023.46
2016-11-01T02:00:48.709Z,1023.44
2016-11-01T02:01:48.726Z,1023.45
2016-11-01T02:02:48.737Z,1023.41
2016-11-01T02:03:48.769Z,1023.44
2016-11-01T02:04:48.781Z,1023.44
2016-11-01T02:05:48.795Z,1023.46
2016-11-01T02:06:48.808Z,1023.44
2016-11-01T02:07:48.831Z,1023.48
2016-11-01T02:08:48.849Z,1023.46
2016-11-01T02:09:48.869Z,1023.45
2016-11-01T02:10:48.888Z,1023.44
2016-11-01T02:11:48.905Z,1023.42
2016-11-01T02:12:48.929Z,1023.39
2016-11-01T02:13:48.939Z,1023.35
2016-11-01T02:14:48.958Z,1023.3
2016-11-01T02:15:48.982Z,1023.32
2016-11-01T02:16:49.001Z,1023.25
2016-11-01T02:17:49.009Z,1023.28
2016-11-01T02:18:49.040Z,1023.27
2016-11-01T02:19:49.048Z,1023.31
2016-11-01T02:20:49.069Z,1023.31
2016-11-01T02:21:49.089Z,1023.27
2016-11-01T02:22:49.099Z,1023.24
2016-11-01T02:23:49.119Z,1023.23
2016-11-01T02:24:49.152Z,1023.2
2016-11-01T02:25:49.154Z,1023.18
2016-11-01T02:26:49.174Z,1023.2
2016-11-01T02:27:49.189Z,1023.21
2016-11-01T02:28:49.214Z,1023.19
2016-11-01T02:29:49.228Z,1023.2
2016-11-01T02:30:49.251Z,1023.19
2016-11-01T02:31:49.270Z,1023.2
2016-11-01T02:32:49.281Z,1023.17
2016-11-01T02:33:49.299Z,1023.19
2016-11-01T02:34:49.322Z,1023.16
2016-11-01T02:35:49.338Z,1023.18
2016-11-01T02:36:49.352Z,1023.2
2016-11-01T02:37:49.370Z,1023.18
2016-11-01T02:38:49.392Z,1023.14
2016-11-01T02:39:49.406Z,1023.13
2016-11-01T02:40:49.426Z,1023.11
2016-11-01T02:41:49.444Z,1023.09
2016-11-01T02:42:49.459Z,1023.08
2016-11-01T02:43:49.480Z,1023.1
2016-11-01T02:44:49.498Z,1023.07
2016-11-01T02:45:49.520Z,1023.08
2016-11-01T02:46:49.543Z,1023.04
2016-11-01T02:47:49.552Z,1022.96
2016-11-01T02:48:49.572Z,1022.93
2016-11-01T02:49:49.591Z,1022.94
2016-11-01T02:50:49.608Z,1022.92
2016-11-01T02:51:49.623Z,1022.93
2016-11-01T02:52:49.642Z,1022.9
2016-11-01T02:53:49.658Z,1022.9
2016-11-01T02:54:49.672Z,1022.91
2016-11-01T02:55:49.696Z,1022.9
2016-11-01T02:56:49.722Z,1022.91
2016-11-01T02:57:49.732Z,1022.91
2016-11-01T02:58:49.751Z,1022.9
2016-11-01T02:59:49.765Z,1022.87
2016-11-01T03:00:49.789Z,1022.84
2016-11-01T03:01:49.806Z,1022.84
2016-11-01T03:02:49.816Z,1022.85
2016-11-01T03:03:49.839Z,1022.87
2016-11-01T03:04:49.858Z,1022.87
2016-11-01T03:05:49.881Z,1022.88
2016-11-01T03:06:49.901Z,1022.84
2016-11-01T03:07:49.917Z,1022.85
2016-11-01T03:08:49.929Z,1022.82
2016-11-01T03:09:49.950Z,1022.81
2016-11-01T03:10:49.971Z,1022.77
2016-11-01T03:11:49.980Z,1022.69
2016-11-01T03:12:50.007Z,1022.68
2016-11-01T03:13:50.018Z,1022.68
2016-11-01T03:14:50.042Z,1022.62
2016-11-01T03:15:50.055Z,1022.61
2016-11-01T03:16:50.069Z,1022.63
2016-11-01T03:17:50.088Z,1022.65
2016-11-01T03:18:50.111Z,1022.62
2016-11-01T03:19:50.127Z,1022.62
2016-11-01T03:20:50.145Z,1022.61
2016-11-01T03:21:50.255Z,1022.61
2016-11-01T03:22:50.187Z,1022.6
2016-11-01T03:23:50.203Z,1022.61
2016-11-01T03:24:50.217Z,1022.6
2016-11-01T03:25:50.233Z,1022.59
2016-11-01T03:26:50.252Z,1022.54
2016-11-01T03:27:50.273Z,1022.53
2016-11-01T03:28:50.292Z,1022.49
2016-11-01T03:29:50.308Z,1022.51
2016-11-01T03:30:50.322Z,1022.55
2016-11-01T03:31:50.346Z,1022.49
2016-11-01T03:32:50.361Z,1022.48
2016-11-01T03:33:50.381Z,1022.51
2016-11-01T03:34:50.410Z,1022.48
2016-11-01T03:35:50.420Z,1022.46
2016-11-01T03:36:50.439Z,1022.47
2016-11-01T03:37:50.455Z,1022.42
2016-11-01T03:38:50.468Z,1022.46
2016-11-01T03:39:50.486Z,1022.36
2016-11-01T03:40:50.511Z,1022.38
2016-11-01T03:41:50.529Z,1022.36
2016-11-01T03:42:50.543Z,1022.34
2016-11-01T03:43:50.556Z,1022.31
2016-11-01T03:44:50.575Z,1022.31
2016-11-01T03:45:50.600Z,1022.31
2016-11-01T03:46:50.617Z,1022.27
2016-11-01T03:47:50.641Z,1022.27
2016-11-01T03:48:50.649Z,1022.28
2016-11-01T03:49:50.668Z,1022.27
2016-11-01T03:50:50.684Z,1022.25
2016-11-01T03:51:50.720Z,1022.28
2016-11-01T03:52:50.722Z,1022.28
2016-11-01T03:53:50.746Z,1022.25
2016-11-01T03:54:50.759Z,1022.26
2016-11-01T03:55:50.778Z,1022.27
2016-11-01T03:56:50.793Z,1022.25
2016-11-01T03:57:50.812Z,1022.23
2016-11-01T03:58:50.831Z,1022.22
2016-11-01T03:59:50.852Z,1022.2
2016-11-01T04:00:50.876Z,1022.13
2016-11-01T04:01:50.884Z,1022.08
2016-11-01T04:02:50.909Z,1022.09
2016-11-01T04:03:50.923Z,1022.08
2016-11-01T04:04:50.937Z,1022.08
2016-11-01T04:05:50.958Z,1022.08
2016-11-01T04:06:50.977Z,1022.04
2016-11-01T04:07:50.998Z,1022.02
2016-11-01T04:08:51.022Z,1022.03
2016-11-01T04:09:51.031Z,1022.03
2016-11-01T04:10:51.051Z,1022.05
2016-11-01T04:11:51.065Z,1022.04
2016-11-01T04:12:51.087Z,1022.02
2016-11-01T04:13:51.103Z,1022.01
2016-11-01T04:14:51.130Z,1022.02
2016-11-01T04:15:51.140Z,1021.99
2016-11-01T04:16:51.159Z,1022.05
2016-11-01T04:17:51.180Z,1022.02
2016-11-01T04:18:51.194Z,1022.04
2016-11-01T04:19:51.214Z,1022.05
2016-11-01T04:20:51.230Z,1022
2016-11-01T04:21:51.252Z,1022.02
2016-11-01T04:22:51.319Z,1022
2016-11-01T04:23:51.279Z,1021.97
2016-11-01T04:24:51.298Z,1021.94
2016-11-01T04:25:51.319Z,1021.95
2016-11-01T04:26:51.337Z,1021.92
2016-11-01T04:27:51.358Z,1021.88
2016-11-01T04:28:51.380Z,1021.85
2016-11-01T04:29:51.399Z,1021.88
2016-11-01T04:30:51.409Z,1021.87
2016-11-01T04:31:51.429Z,1021.86
2016-11-01T04:32:51.449Z,1021.87
2016-11-01T04:33:51.467Z,1021.82
2016-11-01T04:34:51.487Z,1021.79
2016-11-01T04:35:51.500Z,1021.8
2016-11-01T04:36:51.516Z,1021.76
2016-11-01T04:37:51.540Z,1021.72
2016-11-01T04:38:51.556Z,1021.72
2016-11-01T04:39:51.582Z,1021.74
2016-11-01T04:40:51.593Z,1021.7
2016-11-01T04:41:51.609Z,1021.74
2016-11-01T04:42:51.628Z,1021.72
2016-11-01T04:43:51.647Z,1021.68
2016-11-01T04:44:51.668Z,1021.74
2016-11-01T04:45:51.679Z,1021.72
2016-11-01T04:46:51.710Z,1021.72
2016-11-01T04:47:51.722Z,1021.66
2016-11-01T04:48:51.738Z,1021.59
2016-11-01T04:49:51.758Z,1021.57
2016-11-01T04:50:51.774Z,1021.54
2016-11-01T04:51:51.799Z,1021.56
2016-11-01T04:52:51.819Z,1021.56
2016-11-01T04:53:51.828Z,1021.6
2016-11-01T04:54:51.843Z,1021.59
2016-11-01T04:55:51.876Z,1021.6
2016-11-01T04:56:51.883Z,1021.59
2016-11-01T04:57:51.897Z,1021.6
2016-11-01T04:58:51.920Z,1021.56
2016-11-01T04:59:51.935Z,1021.52
2016-11-01T05:00:51.956Z,1021.45
2016-11-01T05:01:51.975Z,1021.43
2016-11-01T05:02:51.998Z,1021.41
2016-11-01T05:03:52.010Z,1021.39
2016-11-01T05:04:52.029Z,1021.37
2016-11-01T05:05:52.062Z,1021.35
2016-11-01T05:06:52.064Z,1021.3
2016-11-01T05:07:52.190Z,1021.31
2016-11-01T05:08:52.103Z,1021.33
2016-11-01T05:09:52.124Z,1021.29
2016-11-01T05:10:52.135Z,1021.26
2016-11-01T05:11:52.153Z,1021.23
2016-11-01T05:12:52.174Z,1021.21
2016-11-01T05:13:52.188Z,1021.22
2016-11-01T05:14:52.212Z,1021.24
2016-11-01T05:15:52.230Z,1021.21
2016-11-01T05:16:52.245Z,1021.22
2016-11-01T05:17:52.262Z,1021.17
2016-11-01T05:18:52.295Z,1021.17
2016-11-01T05:19:52.302Z,1021.15
2016-11-01T05:20:52.327Z,1021.17
2016-11-01T05:21:52.335Z,1021.15
2016-11-01T05:22:52.357Z,1021.1
2016-11-01T05:23:52.375Z,1021.1
2016-11-01T05:24:52.448Z,1021.1
2016-11-01T05:25:52.417Z,1021.1
2016-11-01T05:26:52.427Z,1021.08
2016-11-01T05:27:52.446Z,1021.11
2016-11-01T05:28:52.461Z,1021.08
2016-11-01T05:29:52.484Z,1021.04
2016-11-01T05:30:52.507Z,1021.02
2016-11-01T05:31:52.524Z,1021.02
2016-11-01T05:32:52.534Z,1021.02
2016-11-01T05:33:52.560Z,1021.01
2016-11-01T05:34:52.575Z,1020.96
2016-11-01T05:35:52.644Z,1020.96
2016-11-01T05:36:52.604Z,1020.96
2016-11-01T05:37:52.626Z,1020.91
2016-11-01T05:38:52.642Z,1020.91
2016-11-01T05:39:52.664Z,1020.9
2016-11-01T05:40:52.687Z,1020.9
2016-11-01T05:41:52.695Z,1020.88
2016-11-01T05:42:52.716Z,1020.86
2016-11-01T05:43:52.735Z,1020.87
2016-11-01T05:44:52.760Z,1020.85
2016-11-01T05:45:52.773Z,1020.81
2016-11-01T05:46:52.870Z,1020.81
2016-11-01T05:47:52.812Z,1020.87
2016-11-01T05:48:52.827Z,1020.83
2016-11-01T05:49:52.841Z,1020.75
2016-11-01T05:50:52.865Z,1020.81
2016-11-01T05:51:52.876Z,1020.8
2016-11-01T05:52:52.901Z,1020.8
2016-11-01T05:53:52.921Z,1020.81
2016-11-01T05:54:52.935Z,1020.83
2016-11-01T05:55:52.952Z,1020.79
2016-11-01T05:56:52.977Z,1020.87
2016-11-01T05:57:52.988Z,1020.86
2016-11-01T05:58:53.011Z,1020.85
2016-11-01T05:59:53.033Z,1020.84
2016-11-01T06:00:53.041Z,1020.85
2016-11-01T06:01:53.123Z,1020.79
2016-11-01T06:02:53.079Z,1020.78
2016-11-01T06:03:53.101Z,1020.71
2016-11-01T06:04:53.117Z,1020.71
2016-11-01T06:05:53.136Z,1020.74
2016-11-01T06:06:53.145Z,1020.76
2016-11-01T06:07:53.164Z,1020.76
2016-11-01T06:08:53.186Z,1020.75
2016-11-01T06:09:53.202Z,1020.75
2016-11-01T06:10:53.227Z,1020.77
2016-11-01T06:11:53.238Z,1020.77
2016-11-01T06:12:53.258Z,1020.79
2016-11-01T06:13:53.277Z,1020.81
2016-11-01T06:14:53.291Z,1020.78
2016-11-01T06:15:53.310Z,1020.81
2016-11-01T06:16:53.340Z,1020.83
2016-11-01T06:17:53.350Z,1020.83
2016-11-01T06:18:53.368Z,1020.83
2016-11-01T06:19:53.382Z,1020.87
2016-11-01T06:20:53.403Z,1020.86
2016-11-01T06:21:53.432Z,1020.91
2016-11-01T06:22:53.436Z,1020.87
2016-11-01T06:23:53.466Z,1020.82
2016-11-01T06:24:53.474Z,1020.86
2016-11-01T06:25:53.498Z,1020.88
2016-11-01T06:26:53.527Z,1020.84
2016-11-01T06:27:53.533Z,1020.8
2016-11-01T06:28:53.548Z,1020.83
2016-11-01T06:29:53.567Z,1020.82
2016-11-01T06:30:53.583Z,1020.83
2016-11-01T06:31:53.601Z,1020.81
2016-11-01T06:32:53.619Z,1020.82
2016-11-01T06:33:53.641Z,1020.77
2016-11-01T06:34:53.659Z,1020.76
2016-11-01T06:35:53.674Z,1020.79
2016-11-01T06:36:53.688Z,1020.74
2016-11-01T06:37:53.712Z,1020.73
2016-11-01T06:38:53.726Z,1020.74
2016-11-01T06:39:53.748Z,1020.75
2016-11-01T06:40:53.766Z,1020.68
2016-11-01T06:41:53.785Z,1020.58
2016-11-01T06:42:53.799Z,1020.59
2016-11-01T06:43:53.818Z,1020.59
2016-11-01T06:44:53.840Z,1020.58
2016-11-01T06:45:53.859Z,1020.57
2016-11-01T06:46:53.873Z,1020.57
2016-11-01T06:47:53.902Z,1020.55
2016-11-01T06:48:53.914Z,1020.51
2016-11-01T06:49:53.933Z,1020.53
2016-11-01T06:50:53.945Z,1020.5
2016-11-01T06:51:53.969Z,1020.5
2016-11-01T06:52:53.982Z,1020.48
2016-11-01T06:53:54.009Z,1020.52
2016-11-01T06:54:54.022Z,1020.53
2016-11-01T06:55:54.036Z,1020.48
2016-11-01T06:56:54.058Z,1020.43
2016-11-01T06:57:54.074Z,1020.28
2016-11-01T06:58:54.096Z,1020.3
2016-11-01T06:59:54.115Z,1020.36
2016-11-01T07:00:54.130Z,1020.45
2016-11-01T07:01:54.149Z,1020.43
2016-11-01T07:02:54.181Z,1020.45
2016-11-01T07:03:54.184Z,1020.43
2016-11-01T07:04:54.211Z,1020.42
2016-11-01T07:05:54.225Z,1020.39
2016-11-01T07:06:54.296Z,1020.4
2016-11-01T07:07:54.271Z,1020.39
2016-11-01T07:08:54.284Z,1020.41
2016-11-01T07:09:54.301Z,1020.44
2016-11-01T07:10:54.316Z,1020.38
2016-11-01T07:11:54.335Z,1020.36
2016-11-01T07:12:54.355Z,1020.33
2016-11-01T07:13:54.378Z,1020.33
2016-11-01T07:14:54.393Z,1020.32
2016-11-01T07:15:54.422Z,1020.3
2016-11-01T07:16:54.436Z,1020.36
2016-11-01T07:17:54.476Z,1020.29
2016-11-01T07:18:54.479Z,1020.27
2016-11-01T07:19:54.509Z,1020.26
2016-11-01T07:20:54.505Z,1020.2
2016-11-01T07:21:54.526Z,1020.22
2016-11-01T07:22:54.547Z,1020.27
2016-11-01T07:23:54.565Z,1020.27
2016-11-01T07:24:54.577Z,1020.23
2016-11-01T07:25:54.601Z,1020.24
2016-11-01T07:26:54.614Z,1020.22
2016-11-01T07:27:54.633Z,1020.21
2016-11-01T07:28:54.663Z,1020.2
2016-11-01T07:29:54.673Z,1020.17
2016-11-01T07:30:54.764Z,1020.16
2016-11-01T07:31:54.708Z,1020.16
2016-11-01T07:32:54.783Z,1020.12
2016-11-01T07:33:54.755Z,1020.07
2016-11-01T07:34:54.773Z,1020.14
2016-11-01T07:35:54.789Z,1020.1
2016-11-01T07:36:54.806Z,1020.09
2016-11-01T07:37:54.833Z,1020.1
2016-11-01T07:38:54.841Z,1020.04
2016-11-01T07:39:54.865Z,1020.1
2016-11-01T07:40:54.888Z,1020.1
2016-11-01T07:41:54.921Z,1020.14
2016-11-01T07:42:54.927Z,1020.09
2016-11-01T07:43:54.987Z,1020.07
2016-11-01T07:44:54.968Z,1020.07
2016-11-01T07:45:54.979Z,1020.13
2016-11-01T07:46:54.995Z,1020.12
2016-11-01T07:47:55.022Z,1020.06
2016-11-01T07:48:55.033Z,1020.03
2016-11-01T07:49:55.056Z,1020.02
2016-11-01T07:50:55.075Z,1020.02
2016-11-01T07:51:55.091Z,1020.09
2016-11-01T07:52:55.119Z,1020.09
2016-11-01T07:53:55.131Z,1020.06
2016-11-01T07:54:55.149Z,1020.08
2016-11-01T07:55:55.167Z,1020.08
2016-11-01T07:56:55.189Z,1020.11
2016-11-01T07:57:55.211Z,1020.2
2016-11-01T07:58:55.226Z,1020.19
2016-11-01T07:59:55.248Z,1020.18
2016-11-01T08:00:55.261Z,1020.16
2016-11-01T08:01:55.292Z,1020.11
2016-11-01T08:02:55.305Z,1020.17
2016-11-01T08:03:55.324Z,1020.12
2016-11-01T08:04:55.350Z,1020.16
2016-11-01T08:05:55.361Z,1020.16
2016-11-01T08:06:55.380Z,1020.14
2016-11-01T08:07:55.402Z,1020.18
2016-11-01T08:08:55.418Z,1020.15
2016-11-01T08:09:55.436Z,1020.16
2016-11-01T08:10:55.464Z,1020.14
2016-11-01T08:11:55.475Z,1020.12
2016-11-01T08:12:55.495Z,1020.14
2016-11-01T08:13:55.527Z,1020.14
2016-11-01T08:14:55.534Z,1020.11
2016-11-01T08:15:55.553Z,1020.06
2016-11-01T08:16:55.572Z,1020.1
2016-11-01T08:17:55.595Z,1020.08
2016-11-01T08:18:55.620Z,1020.1
2016-11-01T08:19:55.636Z,1020.06
2016-11-01T08:20:55.658Z,1020.02
2016-11-01T08:21:55.670Z,1020
2016-11-01T08:22:55.692Z,1020
2016-11-01T08:23:55.714Z,1019.99
2016-11-01T08:24:55.733Z,1020.06
2016-11-01T08:25:55.757Z,1020.04
2016-11-01T08:26:55.770Z,1020.04
2016-11-01T08:27:55.791Z,1019.99
2016-11-01T08:28:55.814Z,1019.92
2016-11-01T08:29:55.829Z,1019.97
2016-11-01T08:30:55.857Z,1019.93
2016-11-01T08:31:55.875Z,1019.97
2016-11-01T08:32:55.898Z,1019.92
2016-11-01T08:33:55.928Z,1019.9
2016-11-01T08:34:55.933Z,1019.85
2016-11-01T08:35:55.956Z,1019.83
2016-11-01T08:36:55.980Z,1019.79
2016-11-01T08:37:55.992Z,1019.73
2016-11-01T08:38:56.021Z,1019.72
2016-11-01T08:39:56.034Z,1019.66
2016-11-01T08:40:56.051Z,1019.66
2016-11-01T08:41:56.071Z,1019.63
2016-11-01T08:42:56.093Z,1019.63
2016-11-01T08:43:56.121Z,1019.6
2016-11-01T08:44:56.137Z,1019.57
2016-11-01T08:45:56.151Z,1019.6
2016-11-01T08:46:56.177Z,1019.57
2016-11-01T08:47:56.193Z,1019.62
2016-11-01T08:48:56.216Z,1019.57
2016-11-01T08:49:56.237Z,1019.55
2016-11-01T08:50:56.252Z,1019.53
2016-11-01T08:51:56.283Z,1019.53
2016-11-01T08:52:56.311Z,1019.55
2016-11-01T08:53:56.327Z,1019.54
2016-11-01T08:54:56.332Z,1019.52
2016-11-01T08:55:56.356Z,1019.52
2016-11-01T08:56:56.391Z,1019.53
2016-11-01T08:57:56.395Z,1019.53
2016-11-01T08:58:56.417Z,1019.48
2016-11-01T08:59:56.590Z,1019.5
2016-11-01T09:00:56.463Z,1019.52
2016-11-01T09:01:56.487Z,1019.55
2016-11-01T09:02:56.502Z,1019.51
2016-11-01T09:03:56.520Z,1019.43
2016-11-01T09:04:56.533Z,1019.44
2016-11-01T09:05:56.554Z,1019.46
2016-11-01T09:06:56.581Z,1019.42
2016-11-01T09:07:56.604Z,1019.45
2016-11-01T09:08:56.613Z,1019.43
2016-11-01T09:09:56.640Z,1019.42
2016-11-01T09:10:56.767Z,1019.44
2016-11-01T09:11:56.685Z,1019.45
2016-11-01T09:12:56.729Z,1019.37
2016-11-01T09:13:56.719Z,1019.36
2016-11-01T09:14:56.750Z,1019.33
2016-11-01T09:15:56.768Z,1019.37
2016-11-01T09:16:56.785Z,1019.38
2016-11-01T09:17:56.799Z,1019.41
2016-11-01T09:18:56.823Z,1019.33
2016-11-01T09:19:56.844Z,1019.33
2016-11-01T09:20:56.865Z,1019.28
2016-11-01T09:21:56.889Z,1019.32
2016-11-01T09:22:56.907Z,1019.3
2016-11-01T09:23:56.935Z,1019.32
2016-11-01T09:24:56.948Z,1019.29
2016-11-01T09:25:56.971Z,1019.29
2016-11-01T09:26:56.989Z,1019.27
2016-11-01T09:27:57.015Z,1019.26
2016-11-01T09:28:57.035Z,1019.24
2016-11-01T09:29:57.052Z,1019.24
2016-11-01T09:30:57.075Z,1019.23
2016-11-01T09:31:57.096Z,1019.21
2016-11-01T09:32:57.116Z,1019.22
2016-11-01T09:33:57.140Z,1019.29
2016-11-01T09:34:57.163Z,1019.27
2016-11-01T09:35:57.184Z,1019.22
2016-11-01T09:36:57.200Z,1019.26
2016-11-01T09:37:57.226Z,1019.24
2016-11-01T09:38:57.256Z,1019.2
2016-11-01T09:39:57.261Z,1019.15
2016-11-01T09:40:57.287Z,1019.18
2016-11-01T09:41:57.314Z,1019.14
2016-11-01T09:42:57.325Z,1019.07
2016-11-01T09:43:57.341Z,1019.08
2016-11-01T09:44:57.369Z,1019.06
2016-11-01T09:45:57.386Z,1019.03
2016-11-01T09:46:57.414Z,1019.05
2016-11-01T09:47:57.435Z,1019.09
2016-11-01T09:48:57.452Z,1019.15
2016-11-01T09:49:57.477Z,1019.07
2016-11-01T09:50:57.496Z,1019.12
2016-11-01T09:51:57.513Z,1019.15
2016-11-01T09:52:57.540Z,1019.14
2016-11-01T09:53:57.555Z,1019.13
2016-11-01T09:54:57.574Z,1019.09
2016-11-01T09:55:57.604Z,1019.05
2016-11-01T09:56:57.616Z,1018.99
2016-11-01T09:57:57.650Z,1018.97
2016-11-01T09:58:57.659Z,1018.94
2016-11-01T09:59:57.687Z,1018.97
2016-11-01T10:00:57.707Z,1018.94
2016-11-01T10:01:57.724Z,1018.98
2016-11-01T10:02:57.745Z,1019.02
2016-11-01T10:03:57.764Z,1019.03
2016-11-01T10:04:57.788Z,1019.06
2016-11-01T10:05:57.810Z,1019.1
2016-11-01T10:06:57.823Z,1019.07
2016-11-01T10:07:57.852Z,1019.07
2016-11-01T10:08:57.873Z,1019.11
2016-11-01T10:09:57.895Z,1019.1
2016-11-01T10:10:57.917Z,1019.08
2016-11-01T10:11:57.932Z,1019.07
2016-11-01T10:12:57.966Z,1019.09
2016-11-01T10:13:57.973Z,1019.02
2016-11-01T10:14:58.004Z,1018.98
2016-11-01T10:15:58.011Z,1018.98
2016-11-01T10:16:58.040Z,1019.04
2016-11-01T10:17:58.064Z,1019.06
2016-11-01T10:18:58.088Z,1019.07
2016-11-01T10:19:58.099Z,1019.12
2016-11-01T10:20:58.119Z,1019.14
2016-11-01T10:21:58.139Z,1019.08
2016-11-01T10:22:58.167Z,1019.05
2016-11-01T10:23:58.182Z,1019.04
2016-11-01T10:24:58.227Z,1019.02
2016-11-01T10:25:58.221Z,1019.07
2016-11-01T10:26:58.301Z,1018.99
2016-11-01T10:27:58.269Z,1018.93
2016-11-01T10:28:58.282Z,1018.89
2016-11-01T10:29:58.305Z,1018.88
2016-11-01T10:30:58.328Z,1018.92
2016-11-01T10:31:58.350Z,1018.97
2016-11-01T10:32:58.373Z,1019.06
2016-11-01T10:33:58.386Z,1019.16
2016-11-01T10:34:58.409Z,1019.17
2016-11-01T10:35:58.439Z,1019.1
2016-11-01T10:36:58.460Z,1019.12
2016-11-01T10:37:58.569Z,1019.08
2016-11-01T10:38:58.488Z,1019.02
2016-11-01T10:39:58.506Z,1018.98
2016-11-01T10:40:58.533Z,1018.94
2016-11-01T10:41:58.554Z,1018.96
2016-11-01T10:42:58.571Z,1018.92
2016-11-01T10:43:58.600Z,1018.92
2016-11-01T10:44:58.616Z,1018.92
2016-11-01T10:45:58.635Z,1018.97
2016-11-01T10:46:58.657Z,1018.98
2016-11-01T10:47:58.675Z,1018.98
2016-11-01T10:48:58.846Z,1018.94
2016-11-01T10:49:58.713Z,1018.91
2016-11-01T10:50:58.786Z,1018.89
2016-11-01T10:51:58.754Z,1018.83
2016-11-01T10:52:58.773Z,1018.84
2016-11-01T10:53:58.797Z,1018.88
2016-11-01T10:54:58.814Z,1018.93
2016-11-01T10:55:58.837Z,1018.88
2016-11-01T10:56:58.858Z,1018.83
2016-11-01T10:57:58.876Z,1018.79
2016-11-01T10:58:58.916Z,1018.73
2016-11-01T10:59:58.914Z,1018.72
2016-11-01T11:00:58.943Z,1018.73
2016-11-01T11:01:59.008Z,1018.73
2016-11-01T11:02:58.975Z,1018.73
2016-11-01T11:03:59.002Z,1018.7
2016-11-01T11:04:59.025Z,1018.63
2016-11-01T11:05:59.040Z,1018.58
2016-11-01T11:06:59.057Z,1018.57
2016-11-01T11:07:59.082Z,1018.53
2016-11-01T11:08:59.106Z,1018.51
2016-11-01T11:09:59.128Z,1018.46
2016-11-01T11:10:59.145Z,1018.41
2016-11-01T11:11:59.173Z,1018.42
2016-11-01T11:12:59.196Z,1018.48
2016-11-01T11:13:59.203Z,1018.4
2016-11-01T11:14:59.226Z,1018.36
2016-11-01T11:15:59.247Z,1018.22
2016-11-01T11:16:59.264Z,1018.14
2016-11-01T11:17:59.286Z,1018.08
2016-11-01T11:18:59.307Z,1018.16
2016-11-01T11:19:59.333Z,1018.31
2016-11-01T11:20:59.353Z,1018.4
2016-11-01T11:21:59.375Z,1018.43
2016-11-01T11:22:59.392Z,1018.45
2016-11-01T11:23:59.416Z,1018.51
2016-11-01T11:24:59.434Z,1018.57
2016-11-01T11:25:59.455Z,1018.47
2016-11-01T11:26:59.479Z,1018.42
2016-11-01T11:27:59.506Z,1018.33
2016-11-01T11:28:59.525Z,1018.23
2016-11-01T11:29:59.536Z,1018.19
2016-11-01T11:30:59.567Z,1018.17
2016-11-01T11:31:59.585Z,1018.15
2016-11-01T11:32:59.606Z,1018.23
2016-11-01T11:33:59.625Z,1018.27
2016-11-01T11:34:59.642Z,1018.26
2016-11-01T11:35:59.665Z,1018.21
2016-11-01T11:36:59.688Z,1018.3
2016-11-01T11:37:59.724Z,1018.38
2016-11-01T11:38:59.730Z,1018.47
2016-11-01T11:39:59.751Z,1018.52
2016-11-01T11:40:59.775Z,1018.48
2016-11-01T11:41:59.794Z,1018.42
2016-11-01T11:42:59.820Z,1018.39
2016-11-01T11:43:59.846Z,1018.35
2016-11-01T11:44:59.865Z,1018.37
2016-11-01T11:45:59.884Z,1018.41
2016-11-01T11:46:59.906Z,1018.44
2016-11-01T11:47:59.922Z,1018.47
2016-11-01T11:48:59.943Z,1018.46
2016-11-01T11:49:59.973Z,1018.46
2016-11-01T11:50:59.984Z,1018.41
2016-11-01T11:52:00.010Z,1018.42
2016-11-01T11:53:00.023Z,1018.45
2016-11-01T11:54:00.053Z,1018.43
2016-11-01T11:55:00.080Z,1018.4
2016-11-01T11:56:00.094Z,1018.34
2016-11-01T11:57:00.112Z,1018.27
2016-11-01T11:58:00.137Z,1018.27
2016-11-01T11:59:00.164Z,1018.22
2016-11-01T12:00:00.179Z,1018.19
2016-11-01T12:01:00.204Z,1018.16
2016-11-01T12:02:00.222Z,1018.13
2016-11-01T12:03:00.282Z,1018.1
2016-11-01T12:04:00.259Z,1018.12
2016-11-01T12:05:00.388Z,1018.09
2016-11-01T12:06:00.314Z,1018.07
2016-11-01T12:07:00.333Z,1018.09
2016-11-01T12:08:00.348Z,1018.07
2016-11-01T12:09:00.372Z,1018.05